sensor_id;sensor_type;location;lat;lon;timestamp;temperature;humidity
16863;DHT22;52193;48.216;-1.698;2023-07-13T00:00:53;22.60;78.70
16863;DHT22;52193;48.216;-1.698;2023-07-13T00:03:22;22.60;78.40
16863;DHT22;52193;48.216;-1.698;2023-07-13T00:05:57;22.50;78.40
16863;DHT22;52193;48.216;-1.698;2023-07-13T00:08:24;22.50;78.50
16863;DHT22;52193;48.216;-1.698;2023-07-13T00:10:52;22.40;78.40
16863;DHT22;52193;48.216;-1.698;2023-07-13T00:13:20;22.40;78.40
16863;DHT22;52193;48.216;-1.698;2023-07-13T00:15:46;22.30;78.40
16863;DHT22;52193;48.216;-1.698;2023-07-13T00:18:14;22.30;78.40
16863;DHT22;52193;48.216;-1.698;2023-07-13T00:20:42;22.20;78.40
16863;DHT22;52193;48.216;-1.698;2023-07-13T00:23:09;22.10;78.40
16863;DHT22;52193;48.216;-1.698;2023-07-13T00:25:36;22.10;78.60
16863;DHT22;52193;48.216;-1.698;2023-07-13T00:28:03;22.10;78.60
16863;DHT22;52193;48.216;-1.698;2023-07-13T00:30:30;22.00;78.50
16863;DHT22;52193;48.216;-1.698;2023-07-13T00:32:57;21.90;78.50
16863;DHT22;52193;48.216;-1.698;2023-07-13T00:35:27;21.80;78.60
16863;DHT22;52193;48.216;-1.698;2023-07-13T00:37:58;21.80;78.70
16863;DHT22;52193;48.216;-1.698;2023-07-13T00:40:25;21.80;78.70
16863;DHT22;52193;48.216;-1.698;2023-07-13T00:42:52;21.80;78.60
16863;DHT22;52193;48.216;-1.698;2023-07-13T00:48:36;21.70;78.70
16863;DHT22;52193;48.216;-1.698;2023-07-13T00:51:03;21.70;78.80
16863;DHT22;52193;48.216;-1.698;2023-07-13T00:53:33;21.60;78.80
16863;DHT22;52193;48.216;-1.698;2023-07-13T00:56:01;21.60;78.90
16863;DHT22;52193;48.216;-1.698;2023-07-13T00:58:28;21.60;78.90
16863;DHT22;52193;48.216;-1.698;2023-07-13T01:00:56;21.60;78.80
16863;DHT22;52193;48.216;-1.698;2023-07-13T01:03:22;21.60;78.90
16863;DHT22;52193;48.216;-1.698;2023-07-13T01:05:50;21.60;79.00
16863;DHT22;52193;48.216;-1.698;2023-07-13T01:08:19;21.60;78.90
16863;DHT22;52193;48.216;-1.698;2023-07-13T01:10:55;21.60;78.90
16863;DHT22;52193;48.216;-1.698;2023-07-13T01:13:23;21.60;79.10
16863;DHT22;52193;48.216;-1.698;2023-07-13T01:15:51;21.60;79.10
16863;DHT22;52193;48.216;-1.698;2023-07-13T01:18:21;21.60;79.10
16863;DHT22;52193;48.216;-1.698;2023-07-13T01:20:56;21.50;79.20
16863;DHT22;52193;48.216;-1.698;2023-07-13T01:23:23;21.50;79.30
16863;DHT22;52193;48.216;-1.698;2023-07-13T01:25:51;21.60;79.30
16863;DHT22;52193;48.216;-1.698;2023-07-13T01:28:19;21.60;79.30
16863;DHT22;52193;48.216;-1.698;2023-07-13T01:30:47;21.60;79.20
16863;DHT22;52193;48.216;-1.698;2023-07-13T01:33:16;21.50;79.30
16863;DHT22;52193;48.216;-1.698;2023-07-13T01:35:43;21.40;79.50
16863;DHT22;52193;48.216;-1.698;2023-07-13T01:38:14;21.50;79.60
16863;DHT22;52193;48.216;-1.698;2023-07-13T01:40:41;21.50;79.60
16863;DHT22;52193;48.216;-1.698;2023-07-13T01:43:09;21.50;79.60
16863;DHT22;52193;48.216;-1.698;2023-07-13T01:45:36;21.50;79.70
16863;DHT22;52193;48.216;-1.698;2023-07-13T01:48:04;21.40;79.80
16863;DHT22;52193;48.216;-1.698;2023-07-13T01:50:32;21.50;80.00
16863;DHT22;52193;48.216;-1.698;2023-07-13T01:52:59;21.60;79.90
16863;DHT22;52193;48.216;-1.698;2023-07-13T01:55:27;21.50;80.00
16863;DHT22;52193;48.216;-1.698;2023-07-13T01:57:54;21.60;80.10
16863;DHT22;52193;48.216;-1.698;2023-07-13T02:00:21;21.50;80.00
16863;DHT22;52193;48.216;-1.698;2023-07-13T02:02:48;21.50;80.20
16863;DHT22;52193;48.216;-1.698;2023-07-13T02:05:15;21.50;80.20
16863;DHT22;52193;48.216;-1.698;2023-07-13T02:07:42;21.60;80.40
16863;DHT22;52193;48.216;-1.698;2023-07-13T02:10:11;21.60;80.20
16863;DHT22;52193;48.216;-1.698;2023-07-13T02:12:40;21.60;80.30
16863;DHT22;52193;48.216;-1.698;2023-07-13T02:15:08;21.60;80.50
16863;DHT22;52193;48.216;-1.698;2023-07-13T02:17:36;21.60;80.50
16863;DHT22;52193;48.216;-1.698;2023-07-13T02:20:04;21.60;80.60
16863;DHT22;52193;48.216;-1.698;2023-07-13T02:22:32;21.70;80.70
16863;DHT22;52193;48.216;-1.698;2023-07-13T02:24:59;21.70;80.60
16863;DHT22;52193;48.216;-1.698;2023-07-13T02:27:26;21.70;80.50
16863;DHT22;52193;48.216;-1.698;2023-07-13T02:29:54;21.70;80.60
16863;DHT22;52193;48.216;-1.698;2023-07-13T02:32:21;21.60;80.70
16863;DHT22;52193;48.216;-1.698;2023-07-13T02:34:50;21.60;81.00
16863;DHT22;52193;48.216;-1.698;2023-07-13T02:37:18;21.60;81.00
16863;DHT22;52193;48.216;-1.698;2023-07-13T02:39:44;21.60;81.10
16863;DHT22;52193;48.216;-1.698;2023-07-13T02:42:12;21.60;81.20
16863;DHT22;52193;48.216;-1.698;2023-07-13T02:44:38;21.60;81.20
16863;DHT22;52193;48.216;-1.698;2023-07-13T02:47:07;21.60;81.30
16863;DHT22;52193;48.216;-1.698;2023-07-13T02:49:34;21.60;81.40
16863;DHT22;52193;48.216;-1.698;2023-07-13T02:52:02;21.60;81.50
16863;DHT22;52193;48.216;-1.698;2023-07-13T02:54:29;21.50;81.50
16863;DHT22;52193;48.216;-1.698;2023-07-13T02:56:56;21.50;81.50
16863;DHT22;52193;48.216;-1.698;2023-07-13T02:59:23;21.50;81.60
16863;DHT22;52193;48.216;-1.698;2023-07-13T03:01:49;21.60;81.80
16863;DHT22;52193;48.216;-1.698;2023-07-13T03:04:18;21.50;81.70
16863;DHT22;52193;48.216;-1.698;2023-07-13T03:06:46;21.50;82.00
16863;DHT22;52193;48.216;-1.698;2023-07-13T03:09:13;21.40;82.00
16863;DHT22;52193;48.216;-1.698;2023-07-13T03:11:40;21.50;82.10
16863;DHT22;52193;48.216;-1.698;2023-07-13T03:14:08;21.50;82.00
16863;DHT22;52193;48.216;-1.698;2023-07-13T03:16:35;21.50;82.20
16863;DHT22;52193;48.216;-1.698;2023-07-13T03:19:02;21.50;82.30
16863;DHT22;52193;48.216;-1.698;2023-07-13T03:21:30;21.40;82.20
16863;DHT22;52193;48.216;-1.698;2023-07-13T03:23:57;21.50;82.40
16863;DHT22;52193;48.216;-1.698;2023-07-13T03:26:24;21.40;82.40
16863;DHT22;52193;48.216;-1.698;2023-07-13T03:28:51;21.40;82.60
16863;DHT22;52193;48.216;-1.698;2023-07-13T03:31:21;21.40;82.70
16863;DHT22;52193;48.216;-1.698;2023-07-13T03:33:48;21.40;82.80
16863;DHT22;52193;48.216;-1.698;2023-07-13T03:36:17;21.30;82.80
16863;DHT22;52193;48.216;-1.698;2023-07-13T03:38:48;21.40;83.00
16863;DHT22;52193;48.216;-1.698;2023-07-13T03:41:15;21.40;83.00
16863;DHT22;52193;48.216;-1.698;2023-07-13T03:43:43;21.40;83.00
16863;DHT22;52193;48.216;-1.698;2023-07-13T03:46:10;21.40;82.80
16863;DHT22;52193;48.216;-1.698;2023-07-13T03:48:37;21.50;82.90
16863;DHT22;52193;48.216;-1.698;2023-07-13T03:51:05;21.50;82.80
16863;DHT22;52193;48.216;-1.698;2023-07-13T03:53:32;21.40;82.70
16863;DHT22;52193;48.216;-1.698;2023-07-13T03:56:00;21.40;82.80
16863;DHT22;52193;48.216;-1.698;2023-07-13T03:58:30;21.30;82.80
16863;DHT22;52193;48.216;-1.698;2023-07-13T04:00:58;21.30;83.00
16863;DHT22;52193;48.216;-1.698;2023-07-13T04:03:26;21.20;82.90
16863;DHT22;52193;48.216;-1.698;2023-07-13T04:05:54;21.20;83.10
16863;DHT22;52193;48.216;-1.698;2023-07-13T04:08:25;21.10;83.10
16863;DHT22;52193;48.216;-1.698;2023-07-13T04:10:51;21.10;83.20
16863;DHT22;52193;48.216;-1.698;2023-07-13T04:13:19;21.10;83.20
16863;DHT22;52193;48.216;-1.698;2023-07-13T04:15:46;21.10;83.30
16863;DHT22;52193;48.216;-1.698;2023-07-13T04:18:13;21.00;83.40
16863;DHT22;52193;48.216;-1.698;2023-07-13T04:20:40;21.00;83.50
16863;DHT22;52193;48.216;-1.698;2023-07-13T04:23:07;21.00;83.60
16863;DHT22;52193;48.216;-1.698;2023-07-13T04:25:34;21.00;83.70
16863;DHT22;52193;48.216;-1.698;2023-07-13T04:28:02;21.00;83.70
16863;DHT22;52193;48.216;-1.698;2023-07-13T04:30:31;21.00;83.80
16863;DHT22;52193;48.216;-1.698;2023-07-13T04:32:58;20.90;83.90
16863;DHT22;52193;48.216;-1.698;2023-07-13T04:35:25;20.90;84.00
16863;DHT22;52193;48.216;-1.698;2023-07-13T04:37:52;20.90;83.90
16863;DHT22;52193;48.216;-1.698;2023-07-13T04:40:19;20.90;84.10
16863;DHT22;52193;48.216;-1.698;2023-07-13T04:42:46;20.90;84.30
16863;DHT22;52193;48.216;-1.698;2023-07-13T04:45:14;20.90;84.30
16863;DHT22;52193;48.216;-1.698;2023-07-13T04:47:42;21.00;84.30
16863;DHT22;52193;48.216;-1.698;2023-07-13T04:50:12;20.90;84.30
16863;DHT22;52193;48.216;-1.698;2023-07-13T04:52:40;20.90;84.40
16863;DHT22;52193;48.216;-1.698;2023-07-13T04:55:08;21.00;84.40
16863;DHT22;52193;48.216;-1.698;2023-07-13T04:57:35;21.10;84.30
16863;DHT22;52193;48.216;-1.698;2023-07-13T05:00:02;21.10;84.30
16863;DHT22;52193;48.216;-1.698;2023-07-13T05:02:32;21.10;84.40
16863;DHT22;52193;48.216;-1.698;2023-07-13T05:05:02;21.10;84.30
16863;DHT22;52193;48.216;-1.698;2023-07-13T05:07:29;21.00;84.50
16863;DHT22;52193;48.216;-1.698;2023-07-13T05:09:58;21.00;84.60
16863;DHT22;52193;48.216;-1.698;2023-07-13T05:12:25;21.00;84.70
16863;DHT22;52193;48.216;-1.698;2023-07-13T05:14:52;21.00;84.70
16863;DHT22;52193;48.216;-1.698;2023-07-13T05:17:19;21.10;84.90
16863;DHT22;52193;48.216;-1.698;2023-07-13T05:19:46;21.10;84.90
16863;DHT22;52193;48.216;-1.698;2023-07-13T05:22:14;21.10;84.80
16863;DHT22;52193;48.216;-1.698;2023-07-13T05:24:41;21.00;85.00
16863;DHT22;52193;48.216;-1.698;2023-07-13T05:27:08;21.00;85.10
16863;DHT22;52193;48.216;-1.698;2023-07-13T05:29:35;21.00;85.10
16863;DHT22;52193;48.216;-1.698;2023-07-13T05:32:02;21.10;85.20
16863;DHT22;52193;48.216;-1.698;2023-07-13T05:34:29;21.10;85.10
16863;DHT22;52193;48.216;-1.698;2023-07-13T05:36:56;21.10;85.10
16863;DHT22;52193;48.216;-1.698;2023-07-13T05:39:25;21.20;85.40
16863;DHT22;52193;48.216;-1.698;2023-07-13T05:41:53;21.20;85.30
16863;DHT22;52193;48.216;-1.698;2023-07-13T05:44:20;21.30;85.30
16863;DHT22;52193;48.216;-1.698;2023-07-13T05:46:47;21.30;85.30
16863;DHT22;52193;48.216;-1.698;2023-07-13T05:49:13;21.30;85.40
16863;DHT22;52193;48.216;-1.698;2023-07-13T05:51:41;21.30;85.40
16863;DHT22;52193;48.216;-1.698;2023-07-13T05:54:08;21.30;85.50
16863;DHT22;52193;48.216;-1.698;2023-07-13T05:56:36;21.40;85.50
16863;DHT22;52193;48.216;-1.698;2023-07-13T05:59:03;21.40;85.50
16863;DHT22;52193;48.216;-1.698;2023-07-13T06:01:30;21.50;85.60
16863;DHT22;52193;48.216;-1.698;2023-07-13T06:03:57;21.50;85.50
16863;DHT22;52193;48.216;-1.698;2023-07-13T06:06:24;21.40;85.50
16863;DHT22;52193;48.216;-1.698;2023-07-13T06:08:51;21.40;85.70
16863;DHT22;52193;48.216;-1.698;2023-07-13T06:11:20;21.50;85.70
16863;DHT22;52193;48.216;-1.698;2023-07-13T06:13:48;21.50;85.70
16863;DHT22;52193;48.216;-1.698;2023-07-13T06:16:16;21.50;85.90
16863;DHT22;52193;48.216;-1.698;2023-07-13T06:18:43;21.40;85.80
16863;DHT22;52193;48.216;-1.698;2023-07-13T06:21:12;21.50;85.90
16863;DHT22;52193;48.216;-1.698;2023-07-13T06:23:40;21.40;86.00
16863;DHT22;52193;48.216;-1.698;2023-07-13T06:26:08;21.50;86.20
16863;DHT22;52193;48.216;-1.698;2023-07-13T06:28:36;21.40;86.10
16863;DHT22;52193;48.216;-1.698;2023-07-13T06:31:06;21.50;86.30
16863;DHT22;52193;48.216;-1.698;2023-07-13T06:33:33;21.50;86.20
16863;DHT22;52193;48.216;-1.698;2023-07-13T06:36:01;21.60;86.30
16863;DHT22;52193;48.216;-1.698;2023-07-13T06:38:28;21.50;86.30
16863;DHT22;52193;48.216;-1.698;2023-07-13T06:40:55;21.60;86.50
16863;DHT22;52193;48.216;-1.698;2023-07-13T06:43:22;21.60;86.30
16863;DHT22;52193;48.216;-1.698;2023-07-13T06:45:50;21.60;86.40
16863;DHT22;52193;48.216;-1.698;2023-07-13T06:48:19;21.70;86.40
16863;DHT22;52193;48.216;-1.698;2023-07-13T06:50:49;21.70;86.40
16863;DHT22;52193;48.216;-1.698;2023-07-13T06:53:17;21.60;86.60
16863;DHT22;52193;48.216;-1.698;2023-07-13T06:55:45;21.60;86.60
16863;DHT22;52193;48.216;-1.698;2023-07-13T06:58:12;21.70;86.70
16863;DHT22;52193;48.216;-1.698;2023-07-13T07:00:39;21.70;86.70
16863;DHT22;52193;48.216;-1.698;2023-07-13T07:03:06;21.70;86.70
16863;DHT22;52193;48.216;-1.698;2023-07-13T07:05:35;21.80;86.70
16863;DHT22;52193;48.216;-1.698;2023-07-13T07:08:02;21.80;86.70
16863;DHT22;52193;48.216;-1.698;2023-07-13T07:10:30;21.80;86.60
16863;DHT22;52193;48.216;-1.698;2023-07-13T07:12:57;21.90;86.70
16863;DHT22;52193;48.216;-1.698;2023-07-13T07:15:24;21.90;86.60
16863;DHT22;52193;48.216;-1.698;2023-07-13T07:17:51;21.90;86.60
16863;DHT22;52193;48.216;-1.698;2023-07-13T07:20:18;22.00;86.60
16863;DHT22;52193;48.216;-1.698;2023-07-13T07:22:47;22.00;87.20
16863;DHT22;52193;48.216;-1.698;2023-07-13T07:25:14;22.10;86.50
16863;DHT22;52193;48.216;-1.698;2023-07-13T07:27:41;22.10;86.40
16863;DHT22;52193;48.216;-1.698;2023-07-13T07:30:09;22.10;86.30
16863;DHT22;52193;48.216;-1.698;2023-07-13T07:32:36;22.10;86.20
16863;DHT22;52193;48.216;-1.698;2023-07-13T07:35:03;22.20;86.30
16863;DHT22;52193;48.216;-1.698;2023-07-13T07:37:30;22.20;86.00
16863;DHT22;52193;48.216;-1.698;2023-07-13T07:39:58;22.20;86.10
16863;DHT22;52193;48.216;-1.698;2023-07-13T07:42:25;22.30;86.10
16863;DHT22;52193;48.216;-1.698;2023-07-13T07:44:52;22.30;86.00
16863;DHT22;52193;48.216;-1.698;2023-07-13T07:47:19;22.30;85.80
16863;DHT22;52193;48.216;-1.698;2023-07-13T07:49:48;22.30;85.50
16863;DHT22;52193;48.216;-1.698;2023-07-13T07:52:15;22.30;85.50
16863;DHT22;52193;48.216;-1.698;2023-07-13T07:54:42;22.30;85.50
16863;DHT22;52193;48.216;-1.698;2023-07-13T07:57:10;22.50;85.40
16863;DHT22;52193;48.216;-1.698;2023-07-13T07:59:37;22.50;85.20
16863;DHT22;52193;48.216;-1.698;2023-07-13T08:02:05;22.60;85.00
16863;DHT22;52193;48.216;-1.698;2023-07-13T08:04:32;22.70;84.80
16863;DHT22;52193;48.216;-1.698;2023-07-13T08:06:59;22.70;84.30
16863;DHT22;52193;48.216;-1.698;2023-07-13T08:09:28;22.80;84.40
16863;DHT22;52193;48.216;-1.698;2023-07-13T08:11:55;22.90;84.30
16863;DHT22;52193;48.216;-1.698;2023-07-13T08:14:23;22.90;84.10
16863;DHT22;52193;48.216;-1.698;2023-07-13T08:16:50;22.90;83.90
16863;DHT22;52193;48.216;-1.698;2023-07-13T08:19:17;23.00;83.80
16863;DHT22;52193;48.216;-1.698;2023-07-13T08:21:44;23.10;83.80
16863;DHT22;52193;48.216;-1.698;2023-07-13T08:24:14;23.00;83.70
16863;DHT22;52193;48.216;-1.698;2023-07-13T08:26:41;23.10;83.80
16863;DHT22;52193;48.216;-1.698;2023-07-13T08:29:07;23.00;83.50
16863;DHT22;52193;48.216;-1.698;2023-07-13T08:31:36;23.10;83.60
16863;DHT22;52193;48.216;-1.698;2023-07-13T08:34:03;23.00;83.10
16863;DHT22;52193;48.216;-1.698;2023-07-13T08:36:29;22.90;83.10
16863;DHT22;52193;48.216;-1.698;2023-07-13T08:38:56;23.00;83.20
16863;DHT22;52193;48.216;-1.698;2023-07-13T08:41:23;22.90;82.90
16863;DHT22;52193;48.216;-1.698;2023-07-13T08:43:59;22.90;82.80
16863;DHT22;52193;48.216;-1.698;2023-07-13T08:46:32;22.90;82.60
16863;DHT22;52193;48.216;-1.698;2023-07-13T08:49:04;22.90;82.40
16863;DHT22;52193;48.216;-1.698;2023-07-13T08:51:38;22.80;82.10
16863;DHT22;52193;48.216;-1.698;2023-07-13T08:54:15;22.90;82.20
16863;DHT22;52193;48.216;-1.698;2023-07-13T08:56:44;22.90;82.20
16863;DHT22;52193;48.216;-1.698;2023-07-13T08:59:14;22.90;82.60
16863;DHT22;52193;48.216;-1.698;2023-07-13T09:02:05;22.90;81.80
16863;DHT22;52193;48.216;-1.698;2023-07-13T09:04:41;23.00;81.20
16863;DHT22;52193;48.216;-1.698;2023-07-13T09:07:17;23.10;80.90
16863;DHT22;52193;48.216;-1.698;2023-07-13T09:09:55;23.20;80.60
16863;DHT22;52193;48.216;-1.698;2023-07-13T09:12:35;23.40;80.20
16863;DHT22;52193;48.216;-1.698;2023-07-13T09:15:04;23.60;80.00
16863;DHT22;52193;48.216;-1.698;2023-07-13T09:17:35;23.70;79.40
16863;DHT22;52193;48.216;-1.698;2023-07-13T09:20:12;23.80;78.80
16863;DHT22;52193;48.216;-1.698;2023-07-13T09:22:44;23.90;78.20
16863;DHT22;52193;48.216;-1.698;2023-07-13T09:25:21;24.10;78.40
16863;DHT22;52193;48.216;-1.698;2023-07-13T09:27:52;24.20;77.90
16863;DHT22;52193;48.216;-1.698;2023-07-13T09:30:27;24.20;77.50
16863;DHT22;52193;48.216;-1.698;2023-07-13T09:32:57;24.40;77.00
16863;DHT22;52193;48.216;-1.698;2023-07-13T09:35:27;24.40;76.10
16863;DHT22;52193;48.216;-1.698;2023-07-13T09:37:59;24.30;75.60
16863;DHT22;52193;48.216;-1.698;2023-07-13T09:40:38;24.30;75.60
16863;DHT22;52193;48.216;-1.698;2023-07-13T09:43:10;24.40;75.60
16863;DHT22;52193;48.216;-1.698;2023-07-13T09:45:37;24.40;75.10
16863;DHT22;52193;48.216;-1.698;2023-07-13T09:48:07;24.50;75.30
16863;DHT22;52193;48.216;-1.698;2023-07-13T09:50:35;24.50;75.20
16863;DHT22;52193;48.216;-1.698;2023-07-13T09:53:03;24.50;75.00
16863;DHT22;52193;48.216;-1.698;2023-07-13T09:55:31;24.50;74.80
16863;DHT22;52193;48.216;-1.698;2023-07-13T09:58:03;24.60;74.60
16863;DHT22;52193;48.216;-1.698;2023-07-13T10:00:32;24.90;74.60
16863;DHT22;52193;48.216;-1.698;2023-07-13T10:03:02;25.10;74.20
16863;DHT22;52193;48.216;-1.698;2023-07-13T10:05:39;25.20;73.80
16863;DHT22;52193;48.216;-1.698;2023-07-13T10:08:16;25.30;73.00
16863;DHT22;52193;48.216;-1.698;2023-07-13T10:10:44;25.30;71.90
16863;DHT22;52193;48.216;-1.698;2023-07-13T10:13:29;25.50;70.80
16863;DHT22;52193;48.216;-1.698;2023-07-13T10:15:57;25.50;68.80
16863;DHT22;52193;48.216;-1.698;2023-07-13T10:18:25;25.50;67.90
16863;DHT22;52193;48.216;-1.698;2023-07-13T10:21:04;25.60;67.80
16863;DHT22;52193;48.216;-1.698;2023-07-13T10:23:35;25.50;67.30
16863;DHT22;52193;48.216;-1.698;2023-07-13T10:26:03;25.50;67.40
16863;DHT22;52193;48.216;-1.698;2023-07-13T10:28:35;25.60;67.70
16863;DHT22;52193;48.216;-1.698;2023-07-13T10:31:06;25.70;67.00
16863;DHT22;52193;48.216;-1.698;2023-07-13T10:33:38;25.70;66.20
16863;DHT22;52193;48.216;-1.698;2023-07-13T10:36:27;25.60;66.00
16863;DHT22;52193;48.216;-1.698;2023-07-13T10:38:57;25.70;66.30
16863;DHT22;52193;48.216;-1.698;2023-07-13T10:41:26;25.90;66.50
16863;DHT22;52193;48.216;-1.698;2023-07-13T10:43:55;25.80;65.80
16863;DHT22;52193;48.216;-1.698;2023-07-13T10:46:25;26.00;66.10
16863;DHT22;52193;48.216;-1.698;2023-07-13T10:48:57;26.10;65.70
16863;DHT22;52193;48.216;-1.698;2023-07-13T10:51:26;26.20;65.60
16863;DHT22;52193;48.216;-1.698;2023-07-13T10:54:17;26.30;65.40
16863;DHT22;52193;48.216;-1.698;2023-07-13T10:56:45;26.20;64.70
16863;DHT22;52193;48.216;-1.698;2023-07-13T10:59:15;26.30;64.70
16863;DHT22;52193;48.216;-1.698;2023-07-13T11:01:54;26.30;64.30
16863;DHT22;52193;48.216;-1.698;2023-07-13T11:04:22;26.20;64.70
16863;DHT22;52193;48.216;-1.698;2023-07-13T11:06:55;26.30;64.90
16863;DHT22;52193;48.216;-1.698;2023-07-13T11:09:36;26.40;65.20
16863;DHT22;52193;48.216;-1.698;2023-07-13T11:12:10;26.50;65.10
16863;DHT22;52193;48.216;-1.698;2023-07-13T11:15:12;26.30;64.80
16863;DHT22;52193;48.216;-1.698;2023-07-13T11:17:50;26.60;65.10
16863;DHT22;52193;48.216;-1.698;2023-07-13T11:20:38;26.60;64.80
16863;DHT22;52193;48.216;-1.698;2023-07-13T11:23:28;26.60;64.40
16863;DHT22;52193;48.216;-1.698;2023-07-13T11:25:56;26.60;64.80
16863;DHT22;52193;48.216;-1.698;2023-07-13T11:28:27;26.70;64.90
16863;DHT22;52193;48.216;-1.698;2023-07-13T11:31:14;26.70;64.80
16863;DHT22;52193;48.216;-1.698;2023-07-13T11:33:54;26.80;64.80
16863;DHT22;52193;48.216;-1.698;2023-07-13T11:36:29;26.70;64.40
16863;DHT22;52193;48.216;-1.698;2023-07-13T11:39:02;26.80;64.70
16863;DHT22;52193;48.216;-1.698;2023-07-13T11:41:34;26.80;64.60
16863;DHT22;52193;48.216;-1.698;2023-07-13T11:44:06;26.60;64.60
16863;DHT22;52193;48.216;-1.698;2023-07-13T11:46:34;26.60;65.00
16863;DHT22;52193;48.216;-1.698;2023-07-13T11:49:00;26.60;65.10
16863;DHT22;52193;48.216;-1.698;2023-07-13T11:51:30;26.60;65.20
16863;DHT22;52193;48.216;-1.698;2023-07-13T11:54:19;26.60;65.20
16863;DHT22;52193;48.216;-1.698;2023-07-13T11:56:49;26.60;65.40
16863;DHT22;52193;48.216;-1.698;2023-07-13T11:59:16;26.60;65.40
16863;DHT22;52193;48.216;-1.698;2023-07-13T12:01:47;26.60;65.30
16863;DHT22;52193;48.216;-1.698;2023-07-13T12:04:22;26.60;65.50
16863;DHT22;52193;48.216;-1.698;2023-07-13T12:06:55;26.50;65.40
16863;DHT22;52193;48.216;-1.698;2023-07-13T12:09:27;26.60;65.50
16863;DHT22;52193;48.216;-1.698;2023-07-13T12:11:57;26.40;66.60
16863;DHT22;52193;48.216;-1.698;2023-07-13T12:14:26;26.40;66.10
16863;DHT22;52193;48.216;-1.698;2023-07-13T12:16:53;26.30;66.20
16863;DHT22;52193;48.216;-1.698;2023-07-13T12:19:22;26.30;66.70
16863;DHT22;52193;48.216;-1.698;2023-07-13T12:21:50;26.20;67.10
16863;DHT22;52193;48.216;-1.698;2023-07-13T12:24:20;26.20;67.40
16863;DHT22;52193;48.216;-1.698;2023-07-13T12:26:53;26.30;67.30
16863;DHT22;52193;48.216;-1.698;2023-07-13T12:29:20;26.50;67.40
16863;DHT22;52193;48.216;-1.698;2023-07-13T12:31:49;26.70;67.10
16863;DHT22;52193;48.216;-1.698;2023-07-13T12:34:19;26.70;66.90
16863;DHT22;52193;48.216;-1.698;2023-07-13T12:36:48;26.70;66.80
16863;DHT22;52193;48.216;-1.698;2023-07-13T12:39:18;26.90;66.80
16863;DHT22;52193;48.216;-1.698;2023-07-13T12:41:46;27.00;66.90
16863;DHT22;52193;48.216;-1.698;2023-07-13T12:44:16;27.10;67.00
16863;DHT22;52193;48.216;-1.698;2023-07-13T12:47:03;27.00;67.00
16863;DHT22;52193;48.216;-1.698;2023-07-13T12:49:33;26.90;67.00
16863;DHT22;52193;48.216;-1.698;2023-07-13T12:52:03;26.90;66.80
16863;DHT22;52193;48.216;-1.698;2023-07-13T12:54:31;26.90;66.90
16863;DHT22;52193;48.216;-1.698;2023-07-13T12:56:59;27.10;66.90
16863;DHT22;52193;48.216;-1.698;2023-07-13T12:59:32;27.30;66.80
16863;DHT22;52193;48.216;-1.698;2023-07-13T13:02:16;27.50;66.50
16863;DHT22;52193;48.216;-1.698;2023-07-13T13:04:48;27.60;66.30
16863;DHT22;52193;48.216;-1.698;2023-07-13T13:07:15;28.00;66.20
16863;DHT22;52193;48.216;-1.698;2023-07-13T13:09:43;28.20;65.90
16863;DHT22;52193;48.216;-1.698;2023-07-13T13:12:10;28.40;65.50
16863;DHT22;52193;48.216;-1.698;2023-07-13T13:14:39;29.40;64.80
16863;DHT22;52193;48.216;-1.698;2023-07-13T13:17:18;29.40;64.10
16863;DHT22;52193;48.216;-1.698;2023-07-13T13:19:45;29.00;64.20
16863;DHT22;52193;48.216;-1.698;2023-07-13T13:22:12;29.10;64.30
16863;DHT22;52193;48.216;-1.698;2023-07-13T13:24:39;29.30;63.90
16863;DHT22;52193;48.216;-1.698;2023-07-13T13:27:14;29.60;64.00
16863;DHT22;52193;48.216;-1.698;2023-07-13T13:29:44;30.20;62.90
16863;DHT22;52193;48.216;-1.698;2023-07-13T13:32:13;30.90;62.30
16863;DHT22;52193;48.216;-1.698;2023-07-13T13:34:40;32.10;60.70
16863;DHT22;52193;48.216;-1.698;2023-07-13T13:37:18;31.60;60.80
16863;DHT22;52193;48.216;-1.698;2023-07-13T13:39:47;32.90;59.50
16863;DHT22;52193;48.216;-1.698;2023-07-13T13:42:14;32.50;59.50
16863;DHT22;52193;48.216;-1.698;2023-07-13T13:44:41;32.60;60.00
16863;DHT22;52193;48.216;-1.698;2023-07-13T13:47:21;31.80;59.90
16863;DHT22;52193;48.216;-1.698;2023-07-13T13:49:50;31.30;60.70
16863;DHT22;52193;48.216;-1.698;2023-07-13T13:52:17;31.40;61.00
16863;DHT22;52193;48.216;-1.698;2023-07-13T13:54:44;32.00;60.30
16863;DHT22;52193;48.216;-1.698;2023-07-13T13:57:11;32.50;59.90
16863;DHT22;52193;48.216;-1.698;2023-07-13T13:59:38;33.40;58.00
16863;DHT22;52193;48.216;-1.698;2023-07-13T14:04:50;31.40;59.40
16863;DHT22;52193;48.216;-1.698;2023-07-13T14:07:19;30.90;60.30
16863;DHT22;52193;48.216;-1.698;2023-07-13T14:09:45;30.50;60.80
16863;DHT22;52193;48.216;-1.698;2023-07-13T14:12:12;30.30;61.40
16863;DHT22;52193;48.216;-1.698;2023-07-13T14:14:39;30.20;61.80
16863;DHT22;52193;48.216;-1.698;2023-07-13T14:17:20;30.00;61.80
16863;DHT22;52193;48.216;-1.698;2023-07-13T14:19:50;29.70;62.50
16863;DHT22;52193;48.216;-1.698;2023-07-13T14:22:22;29.50;62.70
16863;DHT22;52193;48.216;-1.698;2023-07-13T14:24:49;29.10;62.80
16863;DHT22;52193;48.216;-1.698;2023-07-13T14:27:16;28.90;63.10
16863;DHT22;52193;48.216;-1.698;2023-07-13T14:29:43;28.60;63.40
16863;DHT22;52193;48.216;-1.698;2023-07-13T14:32:11;28.50;63.90
16863;DHT22;52193;48.216;-1.698;2023-07-13T14:34:38;28.40;64.10
16863;DHT22;52193;48.216;-1.698;2023-07-13T14:37:12;28.50;64.20
16863;DHT22;52193;48.216;-1.698;2023-07-13T14:39:40;28.50;64.30
16863;DHT22;52193;48.216;-1.698;2023-07-13T14:42:09;28.50;64.30
16863;DHT22;52193;48.216;-1.698;2023-07-13T14:44:37;28.30;64.10
16863;DHT22;52193;48.216;-1.698;2023-07-13T14:47:05;28.30;64.40
16863;DHT22;52193;48.216;-1.698;2023-07-13T14:49:35;28.40;64.60
16863;DHT22;52193;48.216;-1.698;2023-07-13T14:52:10;28.40;64.60
16863;DHT22;52193;48.216;-1.698;2023-07-13T14:54:37;28.40;64.60
16863;DHT22;52193;48.216;-1.698;2023-07-13T14:57:09;28.30;64.50
16863;DHT22;52193;48.216;-1.698;2023-07-13T14:59:36;28.20;64.50
16863;DHT22;52193;48.216;-1.698;2023-07-13T15:02:13;28.00;64.70
16863;DHT22;52193;48.216;-1.698;2023-07-13T15:04:41;27.90;64.90
16863;DHT22;52193;48.216;-1.698;2023-07-13T15:07:11;27.70;65.10
16863;DHT22;52193;48.216;-1.698;2023-07-13T15:09:39;27.70;65.30
16863;DHT22;52193;48.216;-1.698;2023-07-13T15:12:06;27.60;65.30
16863;DHT22;52193;48.216;-1.698;2023-07-13T15:14:33;27.50;65.30
16863;DHT22;52193;48.216;-1.698;2023-07-13T15:17:00;27.60;65.50
16863;DHT22;52193;48.216;-1.698;2023-07-13T15:19:28;27.60;65.50
16863;DHT22;52193;48.216;-1.698;2023-07-13T15:21:56;27.70;65.30
16863;DHT22;52193;48.216;-1.698;2023-07-13T15:24:25;27.80;65.30
16863;DHT22;52193;48.216;-1.698;2023-07-13T15:26:52;27.80;65.40
16863;DHT22;52193;48.216;-1.698;2023-07-13T15:29:19;27.80;65.30
16863;DHT22;52193;48.216;-1.698;2023-07-13T15:31:46;27.90;65.50
16863;DHT22;52193;48.216;-1.698;2023-07-13T15:34:15;27.90;65.50